sensor_id;sensor_type;location;lat;lon;timestamp;P1;durP1;ratioP1;P2;durP2;ratioP2
54875;SDS011;40764;48.472;8.166;2023-04-25T00:02:38;4.27;;;2.70;;
54875;SDS011;40764;48.472;8.166;2023-04-25T00:08:38;5.00;;;3.10;;
54875;SDS011;40764;48.472;8.166;2023-04-25T00:14:38;10.43;;;3.60;;
54875;SDS011;40764;48.472;8.166;2023-04-25T00:20:39;8.07;;;2.83;;
54875;SDS011;40764;48.472;8.166;2023-04-25T00:26:39;7.43;;;3.53;;
54875;SDS011;40764;48.472;8.166;2023-04-25T00:32:39;7.57;;;3.25;;
54875;SDS011;40764;48.472;8.166;2023-04-25T00:38:40;8.93;;;3.00;;
54875;SDS011;40764;48.472;8.166;2023-04-25T00:44:40;5.13;;;2.40;;
54875;SDS011;40764;48.472;8.166;2023-04-25T00:50:43;7.78;;;3.47;;
54875;SDS011;40764;48.472;8.166;2023-04-25T00:56:52;4.63;;;2.92;;
54875;SDS011;40764;48.472;8.166;2023-04-25T01:02:52;9.25;;;3.40;;
54875;SDS011;40764;48.472;8.166;2023-04-25T01:08:53;6.35;;;3.58;;
54875;SDS011;40764;48.472;8.166;2023-04-25T01:14:53;3.77;;;2.77;;
54875;SDS011;40764;48.472;8.166;2023-04-25T01:20:54;9.73;;;3.50;;
54875;SDS011;40764;48.472;8.166;2023-04-25T01:26:55;8.20;;;3.72;;
54875;SDS011;40764;48.472;8.166;2023-04-25T01:32:56;6.37;;;2.47;;
54875;SDS011;40764;48.472;8.166;2023-04-25T01:38:57;4.97;;;2.83;;
54875;SDS011;40764;48.472;8.166;2023-04-25T01:44:58;6.13;;;3.40;;
54875;SDS011;40764;48.472;8.166;2023-04-25T01:50:58;4.93;;;2.90;;
54875;SDS011;40764;48.472;8.166;2023-04-25T01:56:59;14.15;;;3.30;;
54875;SDS011;40764;48.472;8.166;2023-04-25T02:03:00;7.33;;;3.53;;
54875;SDS011;40764;48.472;8.166;2023-04-25T02:09:00;13.65;;;4.95;;
54875;SDS011;40764;48.472;8.166;2023-04-25T02:15:00;6.23;;;4.80;;
54875;SDS011;40764;48.472;8.166;2023-04-25T02:21:01;4.77;;;2.63;;
54875;SDS011;40764;48.472;8.166;2023-04-25T02:27:02;10.38;;;3.33;;
54875;SDS011;40764;48.472;8.166;2023-04-25T02:33:03;9.00;;;3.55;;
54875;SDS011;40764;48.472;8.166;2023-04-25T02:39:03;6.82;;;3.33;;
54875;SDS011;40764;48.472;8.166;2023-04-25T02:45:03;5.87;;;2.93;;
54875;SDS011;40764;48.472;8.166;2023-04-25T02:51:04;9.77;;;3.00;;
54875;SDS011;40764;48.472;8.166;2023-04-25T02:57:05;8.70;;;3.47;;
54875;SDS011;40764;48.472;8.166;2023-04-25T03:03:05;4.17;;;3.00;;
54875;SDS011;40764;48.472;8.166;2023-04-25T03:09:06;6.97;;;3.38;;
54875;SDS011;40764;48.472;8.166;2023-04-25T03:15:06;7.07;;;3.30;;
54875;SDS011;40764;48.472;8.166;2023-04-25T03:21:07;8.50;;;4.00;;
54875;SDS011;40764;48.472;8.166;2023-04-25T03:27:08;11.53;;;3.87;;
54875;SDS011;40764;48.472;8.166;2023-04-25T03:33:09;8.27;;;4.00;;
54875;SDS011;40764;48.472;8.166;2023-04-25T03:39:09;13.07;;;4.00;;
54875;SDS011;40764;48.472;8.166;2023-04-25T03:45:09;8.35;;;3.45;;
54875;SDS011;40764;48.472;8.166;2023-04-25T03:51:10;13.40;;;3.40;;
54875;SDS011;40764;48.472;8.166;2023-04-25T03:57:10;13.73;;;2.47;;
54875;SDS011;40764;48.472;8.166;2023-04-25T04:03:10;6.72;;;2.47;;
54875;SDS011;40764;48.472;8.166;2023-04-25T04:09:11;6.88;;;2.85;;
54875;SDS011;40764;48.472;8.166;2023-04-25T04:15:12;27.60;;;7.50;;
54875;SDS011;40764;48.472;8.166;2023-04-25T04:21:13;21.17;;;5.10;;
54875;SDS011;40764;48.472;8.166;2023-04-25T04:27:13;5.03;;;2.60;;
54875;SDS011;40764;48.472;8.166;2023-04-25T04:33:13;14.37;;;6.97;;
54875;SDS011;40764;48.472;8.166;2023-04-25T04:39:18;5.50;;;2.45;;
54875;SDS011;40764;48.472;8.166;2023-04-25T04:45:19;4.43;;;2.47;;
54875;SDS011;40764;48.472;8.166;2023-04-25T04:51:20;3.88;;;2.72;;
54875;SDS011;40764;48.472;8.166;2023-04-25T04:57:20;13.53;;;3.40;;
54875;SDS011;40764;48.472;8.166;2023-04-25T05:03:21;10.23;;;7.18;;
54875;SDS011;40764;48.472;8.166;2023-04-25T05:09:21;8.57;;;3.00;;
54875;SDS011;40764;48.472;8.166;2023-04-25T05:15:25;5.85;;;3.15;;
54875;SDS011;40764;48.472;8.166;2023-04-25T05:21:25;7.77;;;3.70;;
54875;SDS011;40764;48.472;8.166;2023-04-25T05:27:27;11.18;;;5.28;;
54875;SDS011;40764;48.472;8.166;2023-04-25T05:33:27;11.07;;;4.23;;
54875;SDS011;40764;48.472;8.166;2023-04-25T05:39:28;7.55;;;3.63;;
54875;SDS011;40764;48.472;8.166;2023-04-25T05:45:28;8.37;;;3.70;;
54875;SDS011;40764;48.472;8.166;2023-04-25T05:51:28;7.07;;;3.85;;
54875;SDS011;40764;48.472;8.166;2023-04-25T05:57:29;5.93;;;4.32;;
54875;SDS011;40764;48.472;8.166;2023-04-25T06:03:29;9.37;;;4.73;;
54875;SDS011;40764;48.472;8.166;2023-04-25T06:09:30;7.70;;;4.50;;
54875;SDS011;40764;48.472;8.166;2023-04-25T06:15:30;5.18;;;3.42;;
54875;SDS011;40764;48.472;8.166;2023-04-25T06:21:32;13.10;;;3.83;;
54875;SDS011;40764;48.472;8.166;2023-04-25T06:27:35;8.43;;;2.80;;
54875;SDS011;40764;48.472;8.166;2023-04-25T06:33:35;7.70;;;3.38;;
54875;SDS011;40764;48.472;8.166;2023-04-25T06:39:36;13.30;;;6.37;;
54875;SDS011;40764;48.472;8.166;2023-04-25T06:45:36;13.82;;;4.38;;
54875;SDS011;40764;48.472;8.166;2023-04-25T06:51:36;9.60;;;3.90;;
54875;SDS011;40764;48.472;8.166;2023-04-25T06:57:37;7.15;;;3.90;;
54875;SDS011;40764;48.472;8.166;2023-04-25T07:03:37;9.18;;;2.63;;
54875;SDS011;40764;48.472;8.166;2023-04-25T07:09:38;15.40;;;5.83;;
54875;SDS011;40764;48.472;8.166;2023-04-25T07:15:38;9.17;;;3.50;;
54875;SDS011;40764;48.472;8.166;2023-04-25T07:21:39;8.30;;;4.80;;
54875;SDS011;40764;48.472;8.166;2023-04-25T07:27:39;3.17;;;2.10;;
54875;SDS011;40764;48.472;8.166;2023-04-25T07:33:39;4.35;;;2.83;;
54875;SDS011;40764;48.472;8.166;2023-04-25T07:39:40;5.40;;;2.03;;
54875;SDS011;40764;48.472;8.166;2023-04-25T07:45:40;5.63;;;2.10;;
54875;SDS011;40764;48.472;8.166;2023-04-25T07:51:41;3.63;;;2.00;;
54875;SDS011;40764;48.472;8.166;2023-04-25T07:57:43;3.15;;;1.08;;
54875;SDS011;40764;48.472;8.166;2023-04-25T08:03:43;4.30;;;0.73;;
54875;SDS011;40764;48.472;8.166;2023-04-25T08:09:43;1.60;;;0.70;;
54875;SDS011;40764;48.472;8.166;2023-04-25T08:15:44;8.93;;;1.63;;
54875;SDS011;40764;48.472;8.166;2023-04-25T08:21:44;0.77;;;0.60;;
54875;SDS011;40764;48.472;8.166;2023-04-25T08:27:45;1.13;;;0.50;;
54875;SDS011;40764;48.472;8.166;2023-04-25T08:33:45;0.93;;;0.55;;
54875;SDS011;40764;48.472;8.166;2023-04-25T08:39:45;0.50;;;0.30;;
54875;SDS011;40764;48.472;8.166;2023-04-25T08:45:48;0.40;;;0.30;;
54875;SDS011;40764;48.472;8.166;2023-04-25T08:51:48;0.43;;;0.30;;
54875;SDS011;40764;48.472;8.166;2023-04-25T08:57:51;0.63;;;0.50;;
54875;SDS011;40764;48.472;8.166;2023-04-25T09:03:52;0.20;;;0.20;;
54875;SDS011;40764;48.472;8.166;2023-04-25T09:09:52;0.60;;;0.50;;
54875;SDS011;40764;48.472;8.166;2023-04-25T09:15:53;0.43;;;0.32;;
54875;SDS011;40764;48.472;8.166;2023-04-25T09:21:56;0.30;;;0.30;;
54875;SDS011;40764;48.472;8.166;2023-04-25T09:27:57;1.25;;;0.80;;
54875;SDS011;40764;48.472;8.166;2023-04-25T09:34:04;0.32;;;0.20;;
54875;SDS011;40764;48.472;8.166;2023-04-25T09:40:05;0.40;;;0.40;;
54875;SDS011;40764;48.472;8.166;2023-04-25T09:46:08;0.30;;;0.30;;
54875;SDS011;40764;48.472;8.166;2023-04-25T09:58:17;0.32;;;0.32;;
54875;SDS011;40764;48.472;8.166;2023-04-25T10:04:22;0.20;;;0.10;;
54875;SDS011;40764;48.472;8.166;2023-04-25T10:10:24;0.38;;;0.38;;
54875;SDS011;40764;48.472;8.166;2023-04-25T10:16:27;1.00;;;0.47;;
54875;SDS011;40764;48.472;8.166;2023-04-25T10:28:44;0.43;;;0.40;;
54875;SDS011;40764;48.472;8.166;2023-04-25T10:35:04;1.33;;;0.30;;
54875;SDS011;40764;48.472;8.166;2023-04-25T10:41:11;0.90;;;0.60;;
54875;SDS011;40764;48.472;8.166;2023-04-25T10:47:12;1.02;;;0.70;;
54875;SDS011;40764;48.472;8.166;2023-04-25T10:53:16;0.50;;;0.50;;
54875;SDS011;40764;48.472;8.166;2023-04-25T10:59:17;3.28;;;3.00;;
54875;SDS011;40764;48.472;8.166;2023-04-25T11:05:23;2.10;;;0.43;;
54875;SDS011;40764;48.472;8.166;2023-04-25T11:11:40;1.50;;;0.60;;
54875;SDS011;40764;48.472;8.166;2023-04-25T11:17:40;0.70;;;0.50;;
54875;SDS011;40764;48.472;8.166;2023-04-25T11:23:42;0.87;;;0.40;;
54875;SDS011;40764;48.472;8.166;2023-04-25T11:29:46;0.50;;;0.50;;
54875;SDS011;40764;48.472;8.166;2023-04-25T11:35:48;1.10;;;0.32;;
54875;SDS011;40764;48.472;8.166;2023-04-25T11:41:48;3.37;;;1.27;;
54875;SDS011;40764;48.472;8.166;2023-04-25T11:47:49;2.20;;;1.17;;
54875;SDS011;40764;48.472;8.166;2023-04-25T11:53:50;5.00;;;2.55;;
54875;SDS011;40764;48.472;8.166;2023-04-25T11:59:51;0.60;;;0.60;;
54875;SDS011;40764;48.472;8.166;2023-04-25T12:05:51;0.47;;;0.43;;
54875;SDS011;40764;48.472;8.166;2023-04-25T12:11:53;0.60;;;0.60;;
54875;SDS011;40764;48.472;8.166;2023-04-25T12:17:54;1.27;;;0.63;;
54875;SDS011;40764;48.472;8.166;2023-04-25T12:23:55;1.27;;;0.73;;
54875;SDS011;40764;48.472;8.166;2023-04-25T12:29:56;1.00;;;0.90;;
54875;SDS011;40764;48.472;8.166;2023-04-25T12:35:57;3.47;;;1.07;;
54875;SDS011;40764;48.472;8.166;2023-04-25T12:41:58;2.22;;;1.30;;
54875;SDS011;40764;48.472;8.166;2023-04-25T12:47:59;3.07;;;1.43;;
54875;SDS011;40764;48.472;8.166;2023-04-25T12:54:00;5.63;;;2.13;;
54875;SDS011;40764;48.472;8.166;2023-04-25T13:00:01;2.30;;;1.93;;
54875;SDS011;40764;48.472;8.166;2023-04-25T13:06:01;7.17;;;4.93;;
54875;SDS011;40764;48.472;8.166;2023-04-25T13:12:02;3.07;;;2.07;;
54875;SDS011;40764;48.472;8.166;2023-04-25T13:18:03;6.03;;;3.50;;
54875;SDS011;40764;48.472;8.166;2023-04-25T13:24:05;4.28;;;2.42;;
54875;SDS011;40764;48.472;8.166;2023-04-25T13:30:06;4.87;;;1.67;;
54875;SDS011;40764;48.472;8.166;2023-04-25T13:36:07;6.07;;;1.93;;
54875;SDS011;40764;48.472;8.166;2023-04-25T13:42:07;4.43;;;1.50;;
54875;SDS011;40764;48.472;8.166;2023-04-25T13:48:08;6.88;;;2.80;;
54875;SDS011;40764;48.472;8.166;2023-04-25T13:54:08;9.03;;;4.87;;
54875;SDS011;40764;48.472;8.166;2023-04-25T14:00:09;1.73;;;0.90;;
54875;SDS011;40764;48.472;8.166;2023-04-25T14:06:09;4.77;;;3.67;;
54875;SDS011;40764;48.472;8.166;2023-04-25T14:12:11;1.93;;;1.40;;
54875;SDS011;40764;48.472;8.166;2023-04-25T14:18:11;2.67;;;1.42;;
54875;SDS011;40764;48.472;8.166;2023-04-25T14:24:11;2.53;;;1.10;;
54875;SDS011;40764;48.472;8.166;2023-04-25T14:30:13;0.98;;;0.80;;
54875;SDS011;40764;48.472;8.166;2023-04-25T14:36:13;6.57;;;3.00;;
54875;SDS011;40764;48.472;8.166;2023-04-25T14:42:14;1.80;;;0.93;;
54875;SDS011;40764;48.472;8.166;2023-04-25T14:48:14;0.93;;;0.90;;
54875;SDS011;40764;48.472;8.166;2023-04-25T14:54:16;0.80;;;0.70;;
54875;SDS011;40764;48.472;8.166;2023-04-25T15:00:17;2.23;;;1.57;;
54875;SDS011;40764;48.472;8.166;2023-04-25T15:06:19;1.52;;;1.23;;
54875;SDS011;40764;48.472;8.166;2023-04-25T15:12:19;2.23;;;1.17;;
54875;SDS011;40764;48.472;8.166;2023-04-25T15:18:21;3.83;;;1.17;;
54875;SDS011;40764;48.472;8.166;2023-04-25T15:24:22;3.60;;;1.60;;
54875;SDS011;40764;48.472;8.166;2023-04-25T15:30:23;2.17;;;1.63;;
54875;SDS011;40764;48.472;8.166;2023-04-25T15:36:23;3.87;;;1.80;;
54875;SDS011;40764;48.472;8.166;2023-04-25T15:42:23;1.77;;;1.37;;
54875;SDS011;40764;48.472;8.166;2023-04-25T15:48:24;3.55;;;2.03;;
54875;SDS011;40764;48.472;8.166;2023-04-25T15:54:24;3.80;;;1.60;;
54875;SDS011;40764;48.472;8.166;2023-04-25T16:00:25;3.00;;;1.97;;
54875;SDS011;40764;48.472;8.166;2023-04-25T16:06:25;3.37;;;2.43;;
54875;SDS011;40764;48.472;8.166;2023-04-25T16:12:26;8.50;;;2.93;;
54875;SDS011;40764;48.472;8.166;2023-04-25T16:18:30;2.20;;;1.40;;
54875;SDS011;40764;48.472;8.166;2023-04-25T16:24:30;3.37;;;1.93;;
54875;SDS011;40764;48.472;8.166;2023-04-25T16:30:31;5.00;;;2.58;;
54875;SDS011;40764;48.472;8.166;2023-04-25T16:36:31;4.37;;;3.33;;
54875;SDS011;40764;48.472;8.166;2023-04-25T16:42:32;4.90;;;3.10;;
54875;SDS011;40764;48.472;8.166;2023-04-25T16:48:32;5.38;;;3.03;;
54875;SDS011;40764;48.472;8.166;2023-04-25T16:54:33;6.43;;;4.03;;
54875;SDS011;40764;48.472;8.166;2023-04-25T17:00:34;5.00;;;3.03;;
54875;SDS011;40764;48.472;8.166;2023-04-25T17:06:35;3.80;;;2.30;;
54875;SDS011;40764;48.472;8.166;2023-04-25T17:12:35;3.10;;;2.50;;
54875;SDS011;40764;48.472;8.166;2023-04-25T17:18:35;5.25;;;2.95;;
54875;SDS011;40764;48.472;8.166;2023-04-25T17:24:36;7.53;;;4.40;;
54875;SDS011;40764;48.472;8.166;2023-04-25T17:30:36;7.10;;;3.93;;
54875;SDS011;40764;48.472;8.166;2023-04-25T17:36:37;15.68;;;6.15;;
54875;SDS011;40764;48.472;8.166;2023-04-25T17:42:37;13.53;;;5.50;;
54875;SDS011;40764;48.472;8.166;2023-04-25T17:48:38;11.88;;;6.22;;
54875;SDS011;40764;48.472;8.166;2023-04-25T17:54:39;7.83;;;4.63;;
54875;SDS011;40764;48.472;8.166;2023-04-25T18:00:39;8.97;;;5.47;;
54875;SDS011;40764;48.472;8.166;2023-04-25T18:06:40;9.37;;;5.67;;
54875;SDS011;40764;48.472;8.166;2023-04-25T18:12:41;43.67;;;18.83;;
54875;SDS011;40764;48.472;8.166;2023-04-25T18:18:42;47.33;;;21.93;;
54875;SDS011;40764;48.472;8.166;2023-04-25T18:24:45;67.07;;;30.60;;
54875;SDS011;40764;48.472;8.166;2023-04-25T18:30:46;13.83;;;6.97;;
54875;SDS011;40764;48.472;8.166;2023-04-25T18:36:47;6.87;;;3.80;;
54875;SDS011;40764;48.472;8.166;2023-04-25T18:42:47;4.83;;;3.20;;
54875;SDS011;40764;48.472;8.166;2023-04-25T18:48:47;6.50;;;4.83;;
54875;SDS011;40764;48.472;8.166;2023-04-25T18:54:49;4.47;;;2.93;;
54875;SDS011;40764;48.472;8.166;2023-04-25T19:00:50;6.77;;;3.10;;
54875;SDS011;40764;48.472;8.166;2023-04-25T19:06:50;7.37;;;4.40;;
54875;SDS011;40764;48.472;8.166;2023-04-25T19:12:51;7.67;;;4.20;;
54875;SDS011;40764;48.472;8.166;2023-04-25T19:18:52;14.93;;;8.67;;
54875;SDS011;40764;48.472;8.166;2023-04-25T19:24:54;7.72;;;4.22;;
54875;SDS011;40764;48.472;8.166;2023-04-25T19:30:54;8.10;;;4.47;;
54875;SDS011;40764;48.472;8.166;2023-04-25T19:36:55;13.53;;;7.13;;
54875;SDS011;40764;48.472;8.166;2023-04-25T19:42:55;7.53;;;4.53;;
54875;SDS011;40764;48.472;8.166;2023-04-25T19:48:56;5.07;;;3.23;;
54875;SDS011;40764;48.472;8.166;2023-04-25T19:54:57;2.67;;;1.93;;
54875;SDS011;40764;48.472;8.166;2023-04-25T20:01:01;3.97;;;2.22;;
54875;SDS011;40764;48.472;8.166;2023-04-25T20:07:03;9.68;;;4.10;;
54875;SDS011;40764;48.472;8.166;2023-04-25T20:13:03;7.13;;;4.37;;
54875;SDS011;40764;48.472;8.166;2023-04-25T20:19:04;15.70;;;4.30;;
54875;SDS011;40764;48.472;8.166;2023-04-25T20:25:05;6.55;;;4.15;;
54875;SDS011;40764;48.472;8.166;2023-04-25T20:31:08;7.15;;;3.58;;
54875;SDS011;40764;48.472;8.166;2023-04-25T20:37:09;12.80;;;7.95;;
54875;SDS011;40764;48.472;8.166;2023-04-25T20:43:10;14.13;;;6.60;;
54875;SDS011;40764;48.472;8.166;2023-04-25T20:49:11;7.53;;;4.43;;
54875;SDS011;40764;48.472;8.166;2023-04-25T20:55:11;4.63;;;3.15;;
54875;SDS011;40764;48.472;8.166;2023-04-25T21:01:12;5.10;;;3.17;;
54875;SDS011;40764;48.472;8.166;2023-04-25T21:07:12;6.45;;;3.90;;
54875;SDS011;40764;48.472;8.166;2023-04-25T21:13:13;4.77;;;2.77;;
54875;SDS011;40764;48.472;8.166;2023-04-25T21:19:13;9.15;;;4.10;;
54875;SDS011;40764;48.472;8.166;2023-04-25T21:25:17;1.73;;;1.40;;
54875;SDS011;40764;48.472;8.166;2023-04-25T21:31:20;2.25;;;1.95;;
54875;SDS011;40764;48.472;8.166;2023-04-25T21:37:21;5.70;;;3.40;;
54875;SDS011;40764;48.472;8.166;2023-04-25T21:43:21;5.07;;;2.63;;
54875;SDS011;40764;48.472;8.166;2023-04-25T21:49:21;9.55;;;4.38;;
54875;SDS011;40764;48.472;8.166;2023-04-25T21:55:28;9.38;;;4.20;;
54875;SDS011;40764;48.472;8.166;2023-04-25T22:01:28;7.10;;;3.83;;
54875;SDS011;40764;48.472;8.166;2023-04-25T22:07:28;6.15;;;3.58;;
54875;SDS011;40764;48.472;8.166;2023-04-25T22:13:29;7.20;;;3.33;;
54875;SDS011;40764;48.472;8.166;2023-04-25T22:19:30;6.67;;;3.33;;
54875;SDS011;40764;48.472;8.166;2023-04-25T22:25:30;3.87;;;2.47;;
54875;SDS011;40764;48.472;8.166;2023-04-25T22:31:31;4.40;;;2.57;;
54875;SDS011;40764;48.472;8.166;2023-04-25T22:37:32;3.90;;;2.73;;
54875;SDS011;40764;48.472;8.166;2023-04-25T22:43:37;8.85;;;3.70;;
54875;SDS011;40764;48.472;8.166;2023-04-25T22:49:40;9.05;;;3.08;;
54875;SDS011;40764;48.472;8.166;2023-04-25T22:55:41;7.77;;;3.80;;
54875;SDS011;40764;48.472;8.166;2023-04-25T23:01:43;8.27;;;3.47;;
54875;SDS011;40764;48.472;8.166;2023-04-25T23:07:43;5.57;;;3.13;;
54875;SDS011;40764;48.472;8.166;2023-04-25T23:13:44;8.73;;;3.93;;
54875;SDS011;40764;48.472;8.166;2023-04-25T23:19:45;4.67;;;3.03;;
54875;SDS011;40764;48.472;8.166;2023-04-25T23:25:45;8.43;;;2.43;;
54875;SDS011;40764;48.472;8.166;2023-04-25T23:31:46;10.27;;;4.13;;
54875;SDS011;40764;48.472;8.166;2023-04-25T23:37:46;17.17;;;5.80;;
54875;SDS011;40764;48.472;8.166;2023-04-25T23:43:48;24.40;;;6.85;;
54875;SDS011;40764;48.472;8.166;2023-04-25T23:49:48;11.05;;;4.38;;
54875;SDS011;40764;48.472;8.166;2023-04-25T23:55:48;12.15;;;4.55;;
